sensor_id;sensor_type;location;lat;lon;timestamp;P1;durP1;ratioP1;P2;durP2;ratioP2
18834;SDS011;9546;59.262;18.036;2022-09-16T00:01:51;1.70;;;0.40;;
18834;SDS011;9546;59.262;18.036;2022-09-16T00:04:19;2.22;;;0.40;;
18834;SDS011;9546;59.262;18.036;2022-09-16T00:06:46;1.08;;;0.60;;
18834;SDS011;9546;59.262;18.036;2022-09-16T00:09:12;1.63;;;0.60;;
18834;SDS011;9546;59.262;18.036;2022-09-16T00:11:39;3.72;;;0.90;;
18834;SDS011;9546;59.262;18.036;2022-09-16T00:14:05;1.42;;;0.60;;
18834;SDS011;9546;59.262;18.036;2022-09-16T00:16:32;0.90;;;0.60;;
18834;SDS011;9546;59.262;18.036;2022-09-16T00:19:00;0.85;;;0.55;;
18834;SDS011;9546;59.262;18.036;2022-09-16T00:21:28;0.57;;;0.47;;
18834;SDS011;9546;59.262;18.036;2022-09-16T00:23:54;1.35;;;0.60;;
18834;SDS011;9546;59.262;18.036;2022-09-16T00:26:21;0.50;;;0.50;;
18834;SDS011;9546;59.262;18.036;2022-09-16T00:28:47;0.60;;;0.47;;
18834;SDS011;9546;59.262;18.036;2022-09-16T00:31:14;0.35;;;0.30;;
18834;SDS011;9546;59.262;18.036;2022-09-16T00:33:41;1.35;;;0.60;;
18834;SDS011;9546;59.262;18.036;2022-09-16T00:36:10;1.10;;;0.50;;
18834;SDS011;9546;59.262;18.036;2022-09-16T00:38:37;2.45;;;0.60;;
18834;SDS011;9546;59.262;18.036;2022-09-16T00:41:04;0.85;;;0.57;;
18834;SDS011;9546;59.262;18.036;2022-09-16T00:43:44;1.50;;;0.70;;
18834;SDS011;9546;59.262;18.036;2022-09-16T00:46:11;2.50;;;0.57;;
18834;SDS011;9546;59.262;18.036;2022-09-16T00:48:39;0.68;;;0.50;;
18834;SDS011;9546;59.262;18.036;2022-09-16T00:51:06;0.63;;;0.50;;
18834;SDS011;9546;59.262;18.036;2022-09-16T00:53:37;1.85;;;0.90;;
18834;SDS011;9546;59.262;18.036;2022-09-16T00:56:05;1.20;;;0.60;;
18834;SDS011;9546;59.262;18.036;2022-09-16T00:58:32;0.50;;;0.43;;
18834;SDS011;9546;59.262;18.036;2022-09-16T01:01:00;2.08;;;0.68;;
18834;SDS011;9546;59.262;18.036;2022-09-16T01:03:28;2.35;;;0.60;;
18834;SDS011;9546;59.262;18.036;2022-09-16T01:05:55;1.15;;;0.60;;
18834;SDS011;9546;59.262;18.036;2022-09-16T01:27:56;0.75;;;0.47;;
18834;SDS011;9546;59.262;18.036;2022-09-16T01:30:46;0.43;;;0.43;;
18834;SDS011;9546;59.262;18.036;2022-09-16T01:33:19;0.73;;;0.50;;
18834;SDS011;9546;59.262;18.036;2022-09-16T01:35:53;1.00;;;0.50;;
18834;SDS011;9546;59.262;18.036;2022-09-16T01:38:29;1.05;;;0.60;;
18834;SDS011;9546;59.262;18.036;2022-09-16T01:40:59;1.50;;;0.70;;
18834;SDS011;9546;59.262;18.036;2022-09-16T01:43:29;1.08;;;0.63;;
18834;SDS011;9546;59.262;18.036;2022-09-16T01:46:01;1.63;;;0.65;;
18834;SDS011;9546;59.262;18.036;2022-09-16T01:48:30;0.73;;;0.60;;
18834;SDS011;9546;59.262;18.036;2022-09-16T01:51:00;1.25;;;0.60;;
18834;SDS011;9546;59.262;18.036;2022-09-16T01:53:29;2.10;;;1.00;;
18834;SDS011;9546;59.262;18.036;2022-09-16T01:55:59;1.48;;;0.55;;
18834;SDS011;9546;59.262;18.036;2022-09-16T01:58:28;1.73;;;0.75;;
18834;SDS011;9546;59.262;18.036;2022-09-16T02:01:00;0.73;;;0.60;;
18834;SDS011;9546;59.262;18.036;2022-09-16T02:03:29;1.05;;;0.63;;
18834;SDS011;9546;59.262;18.036;2022-09-16T02:05:58;1.30;;;0.60;;
18834;SDS011;9546;59.262;18.036;2022-09-16T02:08:26;1.58;;;0.70;;
18834;SDS011;9546;59.262;18.036;2022-09-16T02:10:55;1.15;;;0.75;;
18834;SDS011;9546;59.262;18.036;2022-09-16T02:13:24;0.80;;;0.70;;
18834;SDS011;9546;59.262;18.036;2022-09-16T02:15:52;1.40;;;0.70;;
18834;SDS011;9546;59.262;18.036;2022-09-16T02:18:23;0.60;;;0.60;;
18834;SDS011;9546;59.262;18.036;2022-09-16T02:20:51;1.23;;;0.80;;
18834;SDS011;9546;59.262;18.036;2022-09-16T02:23:20;3.15;;;0.80;;
18834;SDS011;9546;59.262;18.036;2022-09-16T02:25:48;3.53;;;0.90;;
18834;SDS011;9546;59.262;18.036;2022-09-16T02:28:16;2.58;;;0.82;;
18834;SDS011;9546;59.262;18.036;2022-09-16T02:30:46;1.67;;;0.82;;
18834;SDS011;9546;59.262;18.036;2022-09-16T02:33:15;1.27;;;0.73;;
18834;SDS011;9546;59.262;18.036;2022-09-16T02:35:43;1.42;;;0.80;;
18834;SDS011;9546;59.262;18.036;2022-09-16T02:38:13;0.80;;;0.70;;
18834;SDS011;9546;59.262;18.036;2022-09-16T02:40:41;0.90;;;0.90;;
18834;SDS011;9546;59.262;18.036;2022-09-16T02:43:10;1.80;;;0.80;;
18834;SDS011;9546;59.262;18.036;2022-09-16T02:45:38;1.27;;;0.80;;
18834;SDS011;9546;59.262;18.036;2022-09-16T02:48:07;1.15;;;0.90;;
18834;SDS011;9546;59.262;18.036;2022-09-16T02:50:38;1.60;;;0.82;;
18834;SDS011;9546;59.262;18.036;2022-09-16T02:53:09;0.90;;;0.75;;
18834;SDS011;9546;59.262;18.036;2022-09-16T02:55:41;1.42;;;0.90;;
18834;SDS011;9546;59.262;18.036;2022-09-16T02:58:11;2.42;;;0.90;;
18834;SDS011;9546;59.262;18.036;2022-09-16T03:00:39;1.10;;;0.90;;
18834;SDS011;9546;59.262;18.036;2022-09-16T03:03:06;1.60;;;0.90;;
18834;SDS011;9546;59.262;18.036;2022-09-16T03:05:33;2.97;;;0.80;;
18834;SDS011;9546;59.262;18.036;2022-09-16T03:28:39;1.67;;;1.08;;
18834;SDS011;9546;59.262;18.036;2022-09-16T03:31:08;2.35;;;1.20;;
18834;SDS011;9546;59.262;18.036;2022-09-16T03:33:36;1.83;;;1.58;;
18834;SDS011;9546;59.262;18.036;2022-09-16T03:36:04;1.98;;;1.05;;
18834;SDS011;9546;59.262;18.036;2022-09-16T03:38:33;8.10;;;2.15;;
18834;SDS011;9546;59.262;18.036;2022-09-16T03:41:01;1.35;;;1.25;;
18834;SDS011;9546;59.262;18.036;2022-09-16T03:43:28;3.10;;;1.95;;
18834;SDS011;9546;59.262;18.036;2022-09-16T03:45:56;2.60;;;1.20;;
18834;SDS011;9546;59.262;18.036;2022-09-16T03:48:22;4.30;;;1.60;;
18834;SDS011;9546;59.262;18.036;2022-09-16T03:50:49;2.13;;;1.83;;
18834;SDS011;9546;59.262;18.036;2022-09-16T03:53:15;2.28;;;2.08;;
18834;SDS011;9546;59.262;18.036;2022-09-16T03:55:42;2.10;;;2.00;;
18834;SDS011;9546;59.262;18.036;2022-09-16T03:58:09;2.15;;;1.98;;
18834;SDS011;9546;59.262;18.036;2022-09-16T04:00:35;2.78;;;2.50;;
18834;SDS011;9546;59.262;18.036;2022-09-16T04:03:03;3.00;;;2.33;;
18834;SDS011;9546;59.262;18.036;2022-09-16T04:05:30;2.50;;;2.30;;
18834;SDS011;9546;59.262;18.036;2022-09-16T04:07:57;2.70;;;2.33;;
18834;SDS011;9546;59.262;18.036;2022-09-16T04:10:24;3.00;;;2.60;;
18834;SDS011;9546;59.262;18.036;2022-09-16T04:12:50;4.65;;;2.90;;
18834;SDS011;9546;59.262;18.036;2022-09-16T04:15:21;2.67;;;2.47;;
18834;SDS011;9546;59.262;18.036;2022-09-16T04:17:48;5.78;;;3.05;;
18834;SDS011;9546;59.262;18.036;2022-09-16T04:20:16;3.63;;;3.13;;
18834;SDS011;9546;59.262;18.036;2022-09-16T04:22:44;4.05;;;3.00;;
18834;SDS011;9546;59.262;18.036;2022-09-16T04:25:10;3.95;;;3.17;;
18834;SDS011;9546;59.262;18.036;2022-09-16T04:27:37;2.78;;;2.50;;
18834;SDS011;9546;59.262;18.036;2022-09-16T04:30:05;3.42;;;2.63;;
18834;SDS011;9546;59.262;18.036;2022-09-16T04:32:31;3.92;;;2.97;;
18834;SDS011;9546;59.262;18.036;2022-09-16T04:34:58;4.28;;;2.78;;
18834;SDS011;9546;59.262;18.036;2022-09-16T04:37:26;2.85;;;2.65;;
18834;SDS011;9546;59.262;18.036;2022-09-16T04:39:55;3.92;;;3.30;;
18834;SDS011;9546;59.262;18.036;2022-09-16T04:42:22;3.97;;;3.25;;
18834;SDS011;9546;59.262;18.036;2022-09-16T04:44:48;4.80;;;3.05;;
18834;SDS011;9546;59.262;18.036;2022-09-16T04:47:15;3.65;;;3.35;;
18834;SDS011;9546;59.262;18.036;2022-09-16T04:49:41;3.65;;;3.30;;
18834;SDS011;9546;59.262;18.036;2022-09-16T04:52:09;3.33;;;2.88;;
18834;SDS011;9546;59.262;18.036;2022-09-16T04:54:37;3.13;;;2.85;;
18834;SDS011;9546;59.262;18.036;2022-09-16T04:57:04;4.30;;;2.80;;
18834;SDS011;9546;59.262;18.036;2022-09-16T04:59:30;2.80;;;2.03;;
18834;SDS011;9546;59.262;18.036;2022-09-16T05:01:57;2.85;;;2.35;;
18834;SDS011;9546;59.262;18.036;2022-09-16T05:04:24;2.80;;;2.20;;
18834;SDS011;9546;59.262;18.036;2022-09-16T05:06:51;4.82;;;2.33;;
18834;SDS011;9546;59.262;18.036;2022-09-16T05:28:22;3.30;;;2.65;;
18834;SDS011;9546;59.262;18.036;2022-09-16T05:30:48;3.45;;;3.15;;
18834;SDS011;9546;59.262;18.036;2022-09-16T05:33:15;3.20;;;2.88;;
18834;SDS011;9546;59.262;18.036;2022-09-16T05:35:42;3.42;;;3.13;;
18834;SDS011;9546;59.262;18.036;2022-09-16T05:38:10;3.55;;;2.63;;
18834;SDS011;9546;59.262;18.036;2022-09-16T05:40:37;4.57;;;3.47;;
18834;SDS011;9546;59.262;18.036;2022-09-16T05:43:03;3.17;;;2.88;;
18834;SDS011;9546;59.262;18.036;2022-09-16T05:45:31;3.83;;;3.10;;
18834;SDS011;9546;59.262;18.036;2022-09-16T05:47:58;4.30;;;2.72;;
18834;SDS011;9546;59.262;18.036;2022-09-16T05:50:24;5.07;;;2.92;;
18834;SDS011;9546;59.262;18.036;2022-09-16T05:52:52;3.00;;;2.70;;
18834;SDS011;9546;59.262;18.036;2022-09-16T05:55:18;2.53;;;2.17;;
18834;SDS011;9546;59.262;18.036;2022-09-16T05:57:45;2.60;;;2.40;;
18834;SDS011;9546;59.262;18.036;2022-09-16T06:00:11;3.58;;;2.50;;
18834;SDS011;9546;59.262;18.036;2022-09-16T06:02:40;2.40;;;2.20;;
18834;SDS011;9546;59.262;18.036;2022-09-16T06:05:06;2.47;;;2.20;;
18834;SDS011;9546;59.262;18.036;2022-09-16T06:07:33;2.85;;;2.20;;
18834;SDS011;9546;59.262;18.036;2022-09-16T06:10:00;2.10;;;1.90;;
18834;SDS011;9546;59.262;18.036;2022-09-16T06:12:26;4.20;;;1.75;;
18834;SDS011;9546;59.262;18.036;2022-09-16T06:14:53;2.65;;;1.80;;
18834;SDS011;9546;59.262;18.036;2022-09-16T06:17:19;1.77;;;1.67;;
18834;SDS011;9546;59.262;18.036;2022-09-16T06:19:47;2.95;;;2.00;;
18834;SDS011;9546;59.262;18.036;2022-09-16T06:22:14;4.20;;;1.67;;
18834;SDS011;9546;59.262;18.036;2022-09-16T06:24:41;1.50;;;1.40;;
18834;SDS011;9546;59.262;18.036;2022-09-16T06:27:08;3.03;;;1.38;;
18834;SDS011;9546;59.262;18.036;2022-09-16T06:29:34;1.80;;;1.70;;
18834;SDS011;9546;59.262;18.036;2022-09-16T06:32:01;1.75;;;1.30;;
18834;SDS011;9546;59.262;18.036;2022-09-16T06:34:27;2.03;;;1.60;;
18834;SDS011;9546;59.262;18.036;2022-09-16T06:36:56;1.52;;;1.42;;
18834;SDS011;9546;59.262;18.036;2022-09-16T06:39:23;1.38;;;1.27;;
18834;SDS011;9546;59.262;18.036;2022-09-16T06:41:50;3.03;;;1.52;;
18834;SDS011;9546;59.262;18.036;2022-09-16T06:44:17;1.83;;;1.52;;
18834;SDS011;9546;59.262;18.036;2022-09-16T06:46:43;1.30;;;1.20;;
18834;SDS011;9546;59.262;18.036;2022-09-16T06:49:10;1.27;;;1.17;;
18834;SDS011;9546;59.262;18.036;2022-09-16T06:51:37;1.00;;;1.00;;
18834;SDS011;9546;59.262;18.036;2022-09-16T06:54:06;1.35;;;1.08;;
18834;SDS011;9546;59.262;18.036;2022-09-16T06:56:33;2.40;;;1.30;;
18834;SDS011;9546;59.262;18.036;2022-09-16T06:59:03;1.15;;;0.95;;
18834;SDS011;9546;59.262;18.036;2022-09-16T07:01:30;1.00;;;0.95;;
18834;SDS011;9546;59.262;18.036;2022-09-16T07:03:57;1.85;;;0.90;;
18834;SDS011;9546;59.262;18.036;2022-09-16T07:06:24;1.58;;;1.23;;
18834;SDS011;9546;59.262;18.036;2022-09-16T07:28:13;2.55;;;1.27;;
18834;SDS011;9546;59.262;18.036;2022-09-16T07:30:40;1.65;;;1.10;;
18834;SDS011;9546;59.262;18.036;2022-09-16T07:33:07;1.00;;;0.90;;
18834;SDS011;9546;59.262;18.036;2022-09-16T07:35:34;1.58;;;0.85;;
18834;SDS011;9546;59.262;18.036;2022-09-16T07:38:01;1.27;;;1.00;;
18834;SDS011;9546;59.262;18.036;2022-09-16T07:40:28;1.17;;;0.90;;
18834;SDS011;9546;59.262;18.036;2022-09-16T07:42:56;0.80;;;0.80;;
18834;SDS011;9546;59.262;18.036;2022-09-16T07:45:24;1.15;;;1.05;;
18834;SDS011;9546;59.262;18.036;2022-09-16T07:47:51;1.02;;;0.93;;
18834;SDS011;9546;59.262;18.036;2022-09-16T07:50:18;1.30;;;0.93;;
18834;SDS011;9546;59.262;18.036;2022-09-16T07:52:45;1.27;;;0.98;;
18834;SDS011;9546;59.262;18.036;2022-09-16T07:55:12;3.05;;;1.00;;
18834;SDS011;9546;59.262;18.036;2022-09-16T07:57:41;0.68;;;0.68;;
18834;SDS011;9546;59.262;18.036;2022-09-16T08:00:08;1.85;;;0.60;;
18834;SDS011;9546;59.262;18.036;2022-09-16T08:02:38;1.20;;;0.88;;
18834;SDS011;9546;59.262;18.036;2022-09-16T08:05:06;1.65;;;0.70;;
18834;SDS011;9546;59.262;18.036;2022-09-16T08:07:34;0.88;;;0.75;;
18834;SDS011;9546;59.262;18.036;2022-09-16T08:10:01;0.85;;;0.70;;
18834;SDS011;9546;59.262;18.036;2022-09-16T08:12:28;0.98;;;0.70;;
18834;SDS011;9546;59.262;18.036;2022-09-16T08:14:57;0.85;;;0.60;;
18834;SDS011;9546;59.262;18.036;2022-09-16T08:17:24;0.75;;;0.73;;
18834;SDS011;9546;59.262;18.036;2022-09-16T08:19:53;0.75;;;0.70;;
18834;SDS011;9546;59.262;18.036;2022-09-16T08:22:20;0.70;;;0.60;;
18834;SDS011;9546;59.262;18.036;2022-09-16T08:24:49;0.90;;;0.80;;
18834;SDS011;9546;59.262;18.036;2022-09-16T08:27:16;1.65;;;0.80;;
18834;SDS011;9546;59.262;18.036;2022-09-16T08:29:43;1.00;;;0.90;;
18834;SDS011;9546;59.262;18.036;2022-09-16T08:32:10;0.70;;;0.70;;
18834;SDS011;9546;59.262;18.036;2022-09-16T08:34:37;2.08;;;0.80;;
18834;SDS011;9546;59.262;18.036;2022-09-16T08:37:06;1.52;;;0.73;;
18834;SDS011;9546;59.262;18.036;2022-09-16T08:39:33;1.83;;;1.10;;
18834;SDS011;9546;59.262;18.036;2022-09-16T08:42:15;0.93;;;0.70;;
18834;SDS011;9546;59.262;18.036;2022-09-16T08:44:59;0.77;;;0.77;;
18834;SDS011;9546;59.262;18.036;2022-09-16T08:47:40;0.88;;;0.70;;
18834;SDS011;9546;59.262;18.036;2022-09-16T08:50:16;2.42;;;0.68;;
18834;SDS011;9546;59.262;18.036;2022-09-16T08:52:48;0.60;;;0.60;;
18834;SDS011;9546;59.262;18.036;2022-09-16T08:55:19;0.70;;;0.70;;
18834;SDS011;9546;59.262;18.036;2022-09-16T08:57:53;0.77;;;0.75;;
18834;SDS011;9546;59.262;18.036;2022-09-16T09:00:23;1.55;;;0.70;;
18834;SDS011;9546;59.262;18.036;2022-09-16T09:02:51;1.13;;;0.70;;
18834;SDS011;9546;59.262;18.036;2022-09-16T09:05:27;0.90;;;0.63;;
18834;SDS011;9546;59.262;18.036;2022-09-16T09:08:08;2.15;;;0.82;;
18834;SDS011;9546;59.262;18.036;2022-09-16T09:28:22;0.77;;;0.77;;
18834;SDS011;9546;59.262;18.036;2022-09-16T09:30:55;1.42;;;0.90;;
18834;SDS011;9546;59.262;18.036;2022-09-16T09:33:27;1.65;;;1.33;;
18834;SDS011;9546;59.262;18.036;2022-09-16T09:36:01;1.42;;;0.90;;
18834;SDS011;9546;59.262;18.036;2022-09-16T09:38:47;1.75;;;0.80;;
18834;SDS011;9546;59.262;18.036;2022-09-16T09:41:17;1.10;;;0.90;;
18834;SDS011;9546;59.262;18.036;2022-09-16T09:43:49;1.58;;;1.02;;
18834;SDS011;9546;59.262;18.036;2022-09-16T09:46:19;3.63;;;1.10;;
18834;SDS011;9546;59.262;18.036;2022-09-16T09:48:49;1.35;;;1.00;;
18834;SDS011;9546;59.262;18.036;2022-09-16T09:51:18;0.70;;;0.70;;
18834;SDS011;9546;59.262;18.036;2022-09-16T09:53:48;1.08;;;0.80;;
18834;SDS011;9546;59.262;18.036;2022-09-16T09:56:17;0.93;;;0.88;;
18834;SDS011;9546;59.262;18.036;2022-09-16T09:58:47;1.30;;;0.70;;
18834;SDS011;9546;59.262;18.036;2022-09-16T10:01:17;0.88;;;0.68;;
18834;SDS011;9546;59.262;18.036;2022-09-16T10:03:44;2.35;;;0.80;;
18834;SDS011;9546;59.262;18.036;2022-09-16T10:06:14;0.65;;;0.65;;
18834;SDS011;9546;59.262;18.036;2022-09-16T10:08:41;2.50;;;0.70;;
18834;SDS011;9546;59.262;18.036;2022-09-16T10:11:14;1.05;;;0.70;;
18834;SDS011;9546;59.262;18.036;2022-09-16T10:13:46;1.33;;;0.70;;
18834;SDS011;9546;59.262;18.036;2022-09-16T10:16:15;0.68;;;0.68;;
18834;SDS011;9546;59.262;18.036;2022-09-16T10:18:43;1.73;;;1.00;;
18834;SDS011;9546;59.262;18.036;2022-09-16T10:21:10;1.65;;;0.88;;
18834;SDS011;9546;59.262;18.036;2022-09-16T10:23:38;1.00;;;0.75;;
18834;SDS011;9546;59.262;18.036;2022-09-16T10:26:05;0.95;;;0.60;;
18834;SDS011;9546;59.262;18.036;2022-09-16T10:28:32;1.08;;;0.90;;
18834;SDS011;9546;59.262;18.036;2022-09-16T10:30:59;0.80;;;0.63;;
18834;SDS011;9546;59.262;18.036;2022-09-16T10:33:27;1.90;;;1.00;;
18834;SDS011;9546;59.262;18.036;2022-09-16T10:35:56;0.95;;;0.75;;
18834;SDS011;9546;59.262;18.036;2022-09-16T10:38:25;0.68;;;0.68;;
18834;SDS011;9546;59.262;18.036;2022-09-16T10:40:52;0.80;;;0.70;;
18834;SDS011;9546;59.262;18.036;2022-09-16T10:43:19;2.25;;;0.80;;
18834;SDS011;9546;59.262;18.036;2022-09-16T10:45:47;1.13;;;0.80;;
18834;SDS011;9546;59.262;18.036;2022-09-16T10:48:15;0.90;;;0.73;;
18834;SDS011;9546;59.262;18.036;2022-09-16T10:50:50;2.47;;;0.60;;
18834;SDS011;9546;59.262;18.036;2022-09-16T10:53:26;1.60;;;0.70;;
18834;SDS011;9546;59.262;18.036;2022-09-16T10:55:56;1.40;;;0.70;;
18834;SDS011;9546;59.262;18.036;2022-09-16T10:58:23;2.30;;;1.10;;
18834;SDS011;9546;59.262;18.036;2022-09-16T11:00:52;0.85;;;0.73;;
18834;SDS011;9546;59.262;18.036;2022-09-16T11:03:29;0.95;;;0.70;;
18834;SDS011;9546;59.262;18.036;2022-09-16T11:06:01;0.80;;;0.60;;
18834;SDS011;9546;59.262;18.036;2022-09-16T11:28:39;0.70;;;0.50;;
18834;SDS011;9546;59.262;18.036;2022-09-16T11:31:10;0.60;;;0.60;;
18834;SDS011;9546;59.262;18.036;2022-09-16T11:33:42;0.98;;;0.63;;
18834;SDS011;9546;59.262;18.036;2022-09-16T11:36:19;0.88;;;0.50;;
18834;SDS011;9546;59.262;18.036;2022-09-16T11:38:53;2.15;;;0.40;;
18834;SDS011;9546;59.262;18.036;2022-09-16T11:41:23;2.80;;;0.40;;
18834;SDS011;9546;59.262;18.036;2022-09-16T11:44:00;1.20;;;0.45;;
18834;SDS011;9546;59.262;18.036;2022-09-16T11:46:32;2.42;;;0.40;;
18834;SDS011;9546;59.262;18.036;2022-09-16T11:51:50;2.67;;;0.43;;
18834;SDS011;9546;59.262;18.036;2022-09-16T11:54:24;2.28;;;0.40;;
18834;SDS011;9546;59.262;18.036;2022-09-16T11:56:53;2.15;;;0.40;;
18834;SDS011;9546;59.262;18.036;2022-09-16T11:59:23;2.17;;;0.30;;
18834;SDS011;9546;59.262;18.036;2022-09-16T12:01:52;0.70;;;0.40;;
18834;SDS011;9546;59.262;18.036;2022-09-16T12:04:23;0.30;;;0.30;;
18834;SDS011;9546;59.262;18.036;2022-09-16T12:06:53;0.60;;;0.50;;
18834;SDS011;9546;59.262;18.036;2022-09-16T12:09:23;0.63;;;0.40;;
18834;SDS011;9546;59.262;18.036;2022-09-16T12:11:54;4.00;;;2.10;;
18834;SDS011;9546;59.262;18.036;2022-09-16T12:14:27;0.52;;;0.35;;
18834;SDS011;9546;59.262;18.036;2022-09-16T12:16:56;0.50;;;0.40;;
18834;SDS011;9546;59.262;18.036;2022-09-16T12:19:28;0.82;;;0.40;;
18834;SDS011;9546;59.262;18.036;2022-09-16T12:21:57;1.40;;;0.40;;
18834;SDS011;9546;59.262;18.036;2022-09-16T12:24:26;1.77;;;0.57;;
18834;SDS011;9546;59.262;18.036;2022-09-16T12:26:56;0.75;;;0.55;;
18834;SDS011;9546;59.262;18.036;2022-09-16T12:29:30;2.80;;;0.60;;
18834;SDS011;9546;59.262;18.036;2022-09-16T12:32:00;3.63;;;0.52;;
18834;SDS011;9546;59.262;18.036;2022-09-16T12:34:30;1.42;;;0.60;;
18834;SDS011;9546;59.262;18.036;2022-09-16T12:36:59;1.95;;;0.80;;
18834;SDS011;9546;59.262;18.036;2022-09-16T12:39:26;2.03;;;1.00;;
18834;SDS011;9546;59.262;18.036;2022-09-16T12:42:00;1.73;;;0.85;;
18834;SDS011;9546;59.262;18.036;2022-09-16T12:47:43;0.82;;;0.60;;
18834;SDS011;9546;59.262;18.036;2022-09-16T12:50:15;1.48;;;0.60;;
18834;SDS011;9546;59.262;18.036;2022-09-16T12:52:55;1.05;;;0.50;;
18834;SDS011;9546;59.262;18.036;2022-09-16T12:55:48;1.63;;;0.50;;
18834;SDS011;9546;59.262;18.036;2022-09-16T12:58:32;0.88;;;0.43;;
18834;SDS011;9546;59.262;18.036;2022-09-16T13:01:19;2.00;;;0.52;;
18834;SDS011;9546;59.262;18.036;2022-09-16T13:03:50;0.70;;;0.38;;
18834;SDS011;9546;59.262;18.036;2022-09-16T13:06:21;0.75;;;0.40;;
18834;SDS011;9546;59.262;18.036;2022-09-16T13:28:52;0.57;;;0.50;;
18834;SDS011;9546;59.262;18.036;2022-09-16T13:31:28;0.80;;;0.40;;
18834;SDS011;9546;59.262;18.036;2022-09-16T13:34:02;1.40;;;0.82;;
18834;SDS011;9546;59.262;18.036;2022-09-16T13:36:30;2.85;;;0.65;;
18834;SDS011;9546;59.262;18.036;2022-09-16T13:38:57;0.77;;;0.43;;
18834;SDS011;9546;59.262;18.036;2022-09-16T13:41:34;2.15;;;0.40;;
18834;SDS011;9546;59.262;18.036;2022-09-16T13:44:03;1.20;;;0.60;;
18834;SDS011;9546;59.262;18.036;2022-09-16T13:46:49;1.13;;;0.40;;
18834;SDS011;9546;59.262;18.036;2022-09-16T13:49:17;0.65;;;0.40;;
18834;SDS011;9546;59.262;18.036;2022-09-16T13:51:45;1.60;;;0.70;;
18834;SDS011;9546;59.262;18.036;2022-09-16T13:54:21;0.93;;;0.40;;
18834;SDS011;9546;59.262;18.036;2022-09-16T13:56:50;0.55;;;0.40;;
18834;SDS011;9546;59.262;18.036;2022-09-16T13:59:24;1.20;;;0.50;;
18834;SDS011;9546;59.262;18.036;2022-09-16T14:01:57;0.55;;;0.50;;
18834;SDS011;9546;59.262;18.036;2022-09-16T14:04:29;1.52;;;0.68;;
18834;SDS011;9546;59.262;18.036;2022-09-16T14:07:04;0.82;;;0.45;;
18834;SDS011;9546;59.262;18.036;2022-09-16T14:09:37;1.10;;;0.50;;
18834;SDS011;9546;59.262;18.036;2022-09-16T14:12:08;1.00;;;0.60;;
18834;SDS011;9546;59.262;18.036;2022-09-16T14:14:39;0.88;;;0.63;;
18834;SDS011;9546;59.262;18.036;2022-09-16T14:17:12;0.50;;;0.50;;
18834;SDS011;9546;59.262;18.036;2022-09-16T14:19:40;1.00;;;0.60;;
18834;SDS011;9546;59.262;18.036;2022-09-16T14:22:12;0.40;;;0.40;;
18834;SDS011;9546;59.262;18.036;2022-09-16T14:24:39;0.60;;;0.50;;
18834;SDS011;9546;59.262;18.036;2022-09-16T14:27:17;1.25;;;0.70;;
18834;SDS011;9546;59.262;18.036;2022-09-16T14:29:56;0.50;;;0.50;;
18834;SDS011;9546;59.262;18.036;2022-09-16T14:32:23;0.80;;;0.60;;
18834;SDS011;9546;59.262;18.036;2022-09-16T14:34:50;0.73;;;0.60;;
18834;SDS011;9546;59.262;18.036;2022-09-16T14:37:18;0.75;;;0.60;;
18834;SDS011;9546;59.262;18.036;2022-09-16T14:39:45;1.23;;;0.70;;
18834;SDS011;9546;59.262;18.036;2022-09-16T14:42:14;0.63;;;0.60;;
18834;SDS011;9546;59.262;18.036;2022-09-16T14:44:44;1.45;;;0.90;;
18834;SDS011;9546;59.262;18.036;2022-09-16T14:47:16;0.88;;;0.68;;
18834;SDS011;9546;59.262;18.036;2022-09-16T14:49:45;0.70;;;0.65;;
18834;SDS011;9546;59.262;18.036;2022-09-16T14:52:16;0.82;;;0.82;;
18834;SDS011;9546;59.262;18.036;2022-09-16T14:54:43;0.95;;;0.85;;
18834;SDS011;9546;59.262;18.036;2022-09-16T14:57:13;0.90;;;0.90;;
18834;SDS011;9546;59.262;18.036;2022-09-16T14:59:42;0.77;;;0.73;;
18834;SDS011;9546;59.262;18.036;2022-09-16T15:02:13;1.17;;;0.65;;
18834;SDS011;9546;59.262;18.036;2022-09-16T15:04:44;2.67;;;1.20;;
18834;SDS011;9546;59.262;18.036;2022-09-16T15:07:14;1.98;;;1.00;;
18834;SDS011;9546;59.262;18.036;2022-09-16T15:29:25;0.80;;;0.80;;
18834;SDS011;9546;59.262;18.036;2022-09-16T15:31:53;0.90;;;0.90;;
18834;SDS011;9546;59.262;18.036;2022-09-16T15:34:21;1.00;;;0.80;;
18834;SDS011;9546;59.262;18.036;2022-09-16T15:36:51;1.15;;;0.80;;
18834;SDS011;9546;59.262;18.036;2022-09-16T15:39:23;1.00;;;0.90;;
18834;SDS011;9546;59.262;18.036;2022-09-16T15:42:00;1.15;;;0.90;;
18834;SDS011;9546;59.262;18.036;2022-09-16T15:44:32;1.90;;;0.82;;
18834;SDS011;9546;59.262;18.036;2022-09-16T15:46:59;1.45;;;0.73;;
18834;SDS011;9546;59.262;18.036;2022-09-16T15:49:26;0.80;;;0.80;;
18834;SDS011;9546;59.262;18.036;2022-09-16T15:51:54;1.38;;;0.88;;
18834;SDS011;9546;59.262;18.036;2022-09-16T15:54:22;5.05;;;1.00;;
18834;SDS011;9546;59.262;18.036;2022-09-16T15:56:52;1.48;;;0.93;;
18834;SDS011;9546;59.262;18.036;2022-09-16T15:59:23;1.05;;;0.95;;
18834;SDS011;9546;59.262;18.036;2022-09-16T16:01:53;2.28;;;0.85;;
18834;SDS011;9546;59.262;18.036;2022-09-16T16:04:21;1.05;;;0.95;;
18834;SDS011;9546;59.262;18.036;2022-09-16T16:06:51;1.70;;;1.00;;
18834;SDS011;9546;59.262;18.036;2022-09-16T16:09:33;1.10;;;0.80;;
18834;SDS011;9546;59.262;18.036;2022-09-16T16:12:02;5.88;;;2.63;;
18834;SDS011;9546;59.262;18.036;2022-09-16T16:14:30;9.63;;;1.90;;
18834;SDS011;9546;59.262;18.036;2022-09-16T16:16:58;1.65;;;1.00;;
18834;SDS011;9546;59.262;18.036;2022-09-16T16:19:25;2.38;;;0.82;;
18834;SDS011;9546;59.262;18.036;2022-09-16T16:21:53;1.40;;;0.68;;
18834;SDS011;9546;59.262;18.036;2022-09-16T16:24:21;2.15;;;0.80;;
18834;SDS011;9546;59.262;18.036;2022-09-16T16:26:48;1.27;;;0.82;;
18834;SDS011;9546;59.262;18.036;2022-09-16T16:29:14;1.50;;;1.05;;
18834;SDS011;9546;59.262;18.036;2022-09-16T16:31:56;1.77;;;1.38;;
18834;SDS011;9546;59.262;18.036;2022-09-16T16:34:26;1.27;;;1.05;;
18834;SDS011;9546;59.262;18.036;2022-09-16T16:36:53;1.80;;;1.15;;
18834;SDS011;9546;59.262;18.036;2022-09-16T16:39:19;2.65;;;1.20;;
18834;SDS011;9546;59.262;18.036;2022-09-16T16:41:48;2.28;;;1.13;;
18834;SDS011;9546;59.262;18.036;2022-09-16T16:44:14;1.52;;;0.90;;
18834;SDS011;9546;59.262;18.036;2022-09-16T16:46:41;1.58;;;1.00;;
18834;SDS011;9546;59.262;18.036;2022-09-16T16:49:09;2.15;;;1.10;;
18834;SDS011;9546;59.262;18.036;2022-09-16T16:51:37;1.67;;;1.25;;
18834;SDS011;9546;59.262;18.036;2022-09-16T16:54:04;1.27;;;1.08;;
18834;SDS011;9546;59.262;18.036;2022-09-16T16:56:31;3.35;;;1.45;;
18834;SDS011;9546;59.262;18.036;2022-09-16T16:58:58;2.47;;;1.13;;
18834;SDS011;9546;59.262;18.036;2022-09-16T17:01:24;2.30;;;1.20;;
18834;SDS011;9546;59.262;18.036;2022-09-16T17:03:52;1.30;;;1.00;;
18834;SDS011;9546;59.262;18.036;2022-09-16T17:06:19;1.20;;;1.10;;
18834;SDS011;9546;59.262;18.036;2022-09-16T17:08:48;1.33;;;1.20;;
18834;SDS011;9546;59.262;18.036;2022-09-16T17:28:44;2.20;;;1.45;;
18834;SDS011;9546;59.262;18.036;2022-09-16T17:31:13;2.35;;;1.92;;
18834;SDS011;9546;59.262;18.036;2022-09-16T17:33:40;4.00;;;1.75;;
18834;SDS011;9546;59.262;18.036;2022-09-16T17:36:08;4.07;;;1.85;;
18834;SDS011;9546;59.262;18.036;2022-09-16T17:38:34;5.22;;;2.00;;
18834;SDS011;9546;59.262;18.036;2022-09-16T17:41:02;2.95;;;1.75;;
18834;SDS011;9546;59.262;18.036;2022-09-16T17:43:29;1.60;;;1.35;;
18834;SDS011;9546;59.262;18.036;2022-09-16T17:45:57;1.85;;;1.33;;
18834;SDS011;9546;59.262;18.036;2022-09-16T17:48:24;1.88;;;1.67;;
18834;SDS011;9546;59.262;18.036;2022-09-16T17:50:51;2.05;;;1.48;;
18834;SDS011;9546;59.262;18.036;2022-09-16T17:53:19;1.95;;;1.50;;
18834;SDS011;9546;59.262;18.036;2022-09-16T17:55:46;1.48;;;1.23;;
18834;SDS011;9546;59.262;18.036;2022-09-16T17:58:12;1.58;;;1.38;;
18834;SDS011;9546;59.262;18.036;2022-09-16T18:00:39;1.23;;;1.13;;